Time;durP1;ratioP1;P1;durP2;ratioP2;P2;SDS_P1;SDS_P2;PMS_P1;PMS_P2;Temp;Humidity;BMP_temperature;BMP_pressure;BME280_temperature;BME280_humidity;BME280_pressure;Samples;Min_cycle;Max_cycle;Signal;HPM_P1;HPM_P2
2021/10/22 00:00:37;;;;;;;3.83;0.85;;;;;;;;;;5072200;28;20017;-67
2021/10/22 00:05:46;;;;;;;5.90;1.00;;;;;;;;;;5072269;28;20124;-67
2021/10/22 00:08:12;;;;;;;1.55;0.90;;;;;;;;;;5072144;28;20087;-67
2021/10/22 00:10:37;;;;;;;5.38;1.00;;;;;;;;;;5072143;28;20465;-68
2021/10/22 00:13:02;;;;;;;3.80;1.52;;;;;;;;;;5071974;28;20044;-68
2021/10/22 00:15:28;;;;;;;3.80;1.15;;;;;;;;;;5072046;28;20056;-68
2021/10/22 00:17:53;;;;;;;2.85;0.85;;;;;;;;;;5071947;28;20028;-68
2021/10/22 00:20:18;;;;;;;5.20;1.13;;;;;;;;;;5072121;28;20013;-67
2021/10/22 00:22:44;;;;;;;2.97;0.80;;;;;;;;;;5072050;28;20030;-67
2021/10/22 00:25:09;;;;;;;4.80;1.10;;;;;;;;;;5072257;28;20024;-67
2021/10/22 00:27:34;;;;;;;3.75;0.80;;;;;;;;;;5071820;28;20095;-67
2021/10/22 00:29:59;;;;;;;4.55;1.10;;;;;;;;;;5071891;28;20039;-67
2021/10/22 00:32:25;;;;;;;5.20;0.90;;;;;;;;;;5071889;28;20583;-67
2021/10/22 00:34:50;;;;;;;2.03;0.90;;;;;;;;;;5071883;28;20021;-67
2021/10/22 00:37:16;;;;;;;3.28;1.00;;;;;;;;;;5071779;28;20013;-67
2021/10/22 00:39:41;;;;;;;3.70;0.90;;;;;;;;;;5073417;28;20095;-67
2021/10/22 00:42:07;;;;;;;3.35;0.85;;;;;;;;;;5075488;28;20093;-67
2021/10/22 00:44:33;;;;;;;4.22;1.00;;;;;;;;;;5075932;28;20024;-68
2021/10/22 00:46:58;;;;;;;2.75;1.15;;;;;;;;;;5075404;28;20488;-68
2021/10/22 00:49:24;;;;;;;4.55;1.20;;;;;;;;;;5075068;28;20024;-67
2021/10/22 00:51:49;;;;;;;3.03;1.00;;;;;;;;;;5075355;28;20025;-67
2021/10/22 00:54:15;;;;;;;2.83;0.98;;;;;;;;;;5075371;28;20040;-67
2021/10/22 00:56:40;;;;;;;2.03;0.75;;;;;;;;;;5075459;28;20392;-67
2021/10/22 00:59:06;;;;;;;4.63;0.90;;;;;;;;;;5075076;28;20032;-67
2021/10/22 01:01:37;;;;;;;5.88;0.95;;;;;;;;;;5074958;28;20066;-67
2021/10/22 01:04:02;;;;;;;4.15;1.20;;;;;;;;;;5075264;28;20017;-67
2021/10/22 01:06:28;;;;;;;4.82;1.27;;;;;;;;;;5075124;28;20517;-67
2021/10/22 01:08:53;;;;;;;3.72;0.90;;;;;;;;;;5075716;28;20020;-68
2021/10/22 01:11:19;;;;;;;3.63;0.90;;;;;;;;;;5074795;28;20071;-67
2021/10/22 01:13:45;;;;;;;2.72;1.00;;;;;;;;;;5075099;28;20074;-67
2021/10/22 01:16:10;;;;;;;4.78;0.95;;;;;;;;;;5075004;28;20024;-68
2021/10/22 01:18:35;;;;;;;5.07;1.25;;;;;;;;;;5075267;28;20023;-68
2021/10/22 01:21:04;;;;;;;3.38;1.10;;;;;;;;;;5075070;28;20494;-67
2021/10/22 01:23:29;;;;;;;7.05;1.20;;;;;;;;;;5074835;28;20020;-67
2021/10/22 01:25:55;;;;;;;2.55;1.10;;;;;;;;;;5075057;28;20107;-67
2021/10/22 01:28:21;;;;;;;2.35;1.05;;;;;;;;;;5075294;28;20029;-67
2021/10/22 01:30:47;;;;;;;4.43;0.98;;;;;;;;;;5074958;28;20061;-67
2021/10/22 01:33:17;;;;;;;4.15;0.95;;;;;;;;;;5074378;28;20084;-67
2021/10/22 01:35:42;;;;;;;2.13;1.17;;;;;;;;;;5074532;28;20504;-67
2021/10/22 01:38:07;;;;;;;1.42;0.80;;;;;;;;;;5076932;28;20021;-67
2021/10/22 01:40:33;;;;;;;4.32;1.02;;;;;;;;;;5075366;28;20096;-67
2021/10/22 01:42:58;;;;;;;7.50;1.27;;;;;;;;;;5073570;28;20047;-67
2021/10/22 01:45:23;;;;;;;3.60;1.15;;;;;;;;;;5073595;28;20055;-67
2021/10/22 01:47:49;;;;;;;2.15;1.00;;;;;;;;;;5073367;28;20023;-67
2021/10/22 01:50:14;;;;;;;2.50;1.05;;;;;;;;;;5073915;28;20017;-68
2021/10/22 01:52:40;;;;;;;3.03;1.17;;;;;;;;;;5073751;28;20032;-68
2021/10/22 01:55:06;;;;;;;4.43;0.90;;;;;;;;;;5073912;28;20027;-67
2021/10/22 01:57:32;;;;;;;5.35;0.90;;;;;;;;;;5073212;28;20016;-68
2021/10/22 01:59:57;;;;;;;4.97;0.75;;;;;;;;;;5071924;28;20598;-67
2021/10/22 02:02:22;;;;;;;5.47;0.90;;;;;;;;;;5073640;28;20042;-67
2021/10/22 02:04:47;;;;;;;5.63;1.35;;;;;;;;;;5073647;28;20019;-67
2021/10/22 02:07:13;;;;;;;1.92;0.98;;;;;;;;;;5073339;28;20094;-67
2021/10/22 02:09:38;;;;;;;5.22;1.35;;;;;;;;;;5073048;28;20024;-67
2021/10/22 02:12:04;;;;;;;2.60;1.10;;;;;;;;;;5073529;28;20020;-67
2021/10/22 02:14:30;;;;;;;6.97;1.27;;;;;;;;;;5073994;28;20432;-67
2021/10/22 02:16:55;;;;;;;1.02;0.73;;;;;;;;;;5073580;28;20027;-67
2021/10/22 02:19:20;;;;;;;2.25;1.00;;;;;;;;;;5073646;28;20099;-67
2021/10/22 02:21:46;;;;;;;2.75;1.00;;;;;;;;;;5073983;28;20024;-68
2021/10/22 02:24:12;;;;;;;4.43;1.00;;;;;;;;;;5073312;28;20024;-67
2021/10/22 02:26:37;;;;;;;2.60;1.40;;;;;;;;;;5073666;28;20027;-67
2021/10/22 02:29:02;;;;;;;3.97;1.30;;;;;;;;;;5073301;28;20519;-67
2021/10/22 02:31:28;;;;;;;4.15;1.30;;;;;;;;;;5072940;28;20024;-67
2021/10/22 02:33:53;;;;;;;6.72;1.58;;;;;;;;;;5073417;28;20142;-67
2021/10/22 02:36:18;;;;;;;4.03;1.20;;;;;;;;;;5073226;28;20021;-67
2021/10/22 02:38:44;;;;;;;3.13;1.60;;;;;;;;;;5073010;28;20028;-68
2021/10/22 02:41:10;;;;;;;5.32;1.02;;;;;;;;;;5072998;28;20020;-67
2021/10/22 02:43:35;;;;;;;2.30;1.10;;;;;;;;;;5072926;28;20519;-67
2021/10/22 02:46:00;;;;;;;6.80;1.33;;;;;;;;;;5073036;28;20013;-67
2021/10/22 02:48:26;;;;;;;5.82;1.77;;;;;;;;;;5073314;28;20020;-68
2021/10/22 02:50:51;;;;;;;3.60;1.25;;;;;;;;;;5073055;28;20370;-68
2021/10/22 02:53:17;;;;;;;20.83;11.45;;;;;;;;;;5072761;28;20354;-67
2021/10/22 02:55:42;;;;;;;96.32;44.55;;;;;;;;;;5072891;28;20025;-67
2021/10/22 02:58:08;;;;;;;118.75;51.17;;;;;;;;;;5072801;28;20021;-67
2021/10/22 03:00:33;;;;;;;144.15;69.28;;;;;;;;;;5072795;28;20019;-67
2021/10/22 03:03:00;;;;;;;20.73;6.53;;;;;;;;;;5072585;28;20017;-67
2021/10/22 03:05:25;;;;;;;2.72;1.60;;;;;;;;;;5071458;28;20020;-67
2021/10/22 03:07:51;;;;;;;4.93;1.75;;;;;;;;;;5072645;28;20028;-67
2021/10/22 03:10:16;;;;;;;4.18;2.20;;;;;;;;;;5072813;28;20020;-67
2021/10/22 03:12:41;;;;;;;8.95;3.42;;;;;;;;;;5072592;28;20027;-67
2021/10/22 03:15:07;;;;;;;18.05;12.00;;;;;;;;;;5072654;28;20044;-67
2021/10/22 03:17:33;;;;;;;20.45;13.90;;;;;;;;;;5072364;28;20020;-67
2021/10/22 03:19:58;;;;;;;14.48;8.35;;;;;;;;;;5072525;28;20602;-67
2021/10/22 03:22:23;;;;;;;10.10;4.45;;;;;;;;;;5072769;28;20103;-67
2021/10/22 03:24:49;;;;;;;9.82;2.85;;;;;;;;;;5072510;28;20020;-67
2021/10/22 03:27:15;;;;;;;9.05;3.58;;;;;;;;;;5072466;28;20024;-67
2021/10/22 03:29:41;;;;;;;11.20;3.20;;;;;;;;;;5072271;28;20027;-67
2021/10/22 03:32:06;;;;;;;5.28;2.25;;;;;;;;;;5072393;28;20029;-67
2021/10/22 03:34:31;;;;;;;10.68;3.97;;;;;;;;;;5072377;28;20032;-67
2021/10/22 03:36:57;;;;;;;6.25;2.85;;;;;;;;;;5072211;28;20510;-67
2021/10/22 03:39:22;;;;;;;5.28;2.40;;;;;;;;;;5071984;28;20016;-67
2021/10/22 03:41:47;;;;;;;5.90;1.88;;;;;;;;;;5072249;28;20121;-67
2021/10/22 03:44:13;;;;;;;7.95;1.85;;;;;;;;;;5072332;28;20477;-67
2021/10/22 03:46:38;;;;;;;8.52;2.25;;;;;;;;;;5072401;28;20021;-66
2021/10/22 03:49:03;;;;;;;4.50;2.38;;;;;;;;;;5072375;28;20449;-66
2021/10/22 03:51:29;;;;;;;3.00;1.70;;;;;;;;;;5072766;28;20030;-66
2021/10/22 03:53:54;;;;;;;5.93;3.25;;;;;;;;;;5073018;28;20369;-67
2021/10/22 03:56:20;;;;;;;5.40;2.10;;;;;;;;;;5072663;28;20419;-67
2021/10/22 03:58:45;;;;;;;5.28;2.03;;;;;;;;;;5072598;28;20024;-67
2021/10/22 04:01:11;;;;;;;4.13;1.98;;;;;;;;;;5072120;28;20024;-66
2021/10/22 04:03:36;;;;;;;5.00;2.60;;;;;;;;;;5071951;28;20032;-66
2021/10/22 04:06:01;;;;;;;3.67;2.00;;;;;;;;;;5072241;28;20017;-66
2021/10/22 04:08:28;;;;;;;5.20;2.50;;;;;;;;;;5070903;28;20465;-66
2021/10/22 04:10:53;;;;;;;5.95;2.47;;;;;;;;;;5072034;28;20024;-67
2021/10/22 04:13:19;;;;;;;7.13;2.60;;;;;;;;;;5071661;28;20039;-66
2021/10/22 04:15:44;;;;;;;5.22;1.75;;;;;;;;;;5075345;28;20023;-66
2021/10/22 04:18:10;;;;;;;5.72;2.00;;;;;;;;;;5075808;28;20439;-66
2021/10/22 04:20:35;;;;;;;6.20;1.80;;;;;;;;;;5075805;28;20020;-66
2021/10/22 04:23:01;;;;;;;4.03;1.75;;;;;;;;;;5075897;28;20016;-66
2021/10/22 04:25:26;;;;;;;4.63;1.70;;;;;;;;;;5075535;28;20506;-66
2021/10/22 04:27:51;;;;;;;6.13;1.88;;;;;;;;;;5075725;28;20025;-66
2021/10/22 04:30:17;;;;;;;3.90;2.38;;;;;;;;;;5075682;28;20031;-66
2021/10/22 04:32:42;;;;;;;4.43;2.13;;;;;;;;;;5075775;28;20491;-66
2021/10/22 04:35:08;;;;;;;4.05;2.40;;;;;;;;;;5074247;28;20056;-66
2021/10/22 04:37:34;;;;;;;5.82;1.80;;;;;;;;;;5075182;28;20016;-66
2021/10/22 04:42:48;;;;;;;3.97;1.90;;;;;;;;;;5075515;28;20051;-66
2021/10/22 04:45:13;;;;;;;;;;;;;;;;;;5075881;28;20475;-67
2021/10/22 04:47:39;;;;;;;3.97;1.50;;;;;;;;;;5075468;28;19904;-67
2021/10/22 04:50:05;;;;;;;10.10;1.67;;;;;;;;;;5075220;28;20548;-66
2021/10/22 04:52:30;;;;;;;3.83;1.80;;;;;;;;;;5075217;28;20111;-67
2021/10/22 04:54:55;;;;;;;12.77;3.22;;;;;;;;;;5075252;28;20056;-67
2021/10/22 04:57:20;;;;;;;3.65;1.70;;;;;;;;;;5074931;28;20012;-67
2021/10/22 04:59:46;;;;;;;4.57;2.20;;;;;;;;;;5075295;28;20361;-67
2021/10/22 05:02:11;;;;;;;9.05;2.20;;;;;;;;;;5075395;28;20016;-66
2021/10/22 05:04:36;;;;;;;6.40;2.67;;;;;;;;;;5075201;28;20028;-66
2021/10/22 05:07:01;;;;;;;7.15;2.92;;;;;;;;;;5075135;28;20027;-67
2021/10/22 05:09:27;;;;;;;3.42;1.80;;;;;;;;;;5075179;28;20054;-67
2021/10/22 05:11:52;;;;;;;4.15;1.80;;;;;;;;;;5074970;28;20021;-67
2021/10/22 05:14:18;;;;;;;7.40;2.55;;;;;;;;;;5074666;28;20381;-67
2021/10/22 05:16:43;;;;;;;20.88;9.13;;;;;;;;;;5075406;28;20048;-66
2021/10/22 05:19:08;;;;;;;18.88;7.22;;;;;;;;;;5074807;28;20021;-66
2021/10/22 05:21:33;;;;;;;9.57;4.13;;;;;;;;;;5074432;28;20442;-67
2021/10/22 05:23:59;;;;;;;6.57;2.63;;;;;;;;;;5074950;28;20025;-66
2021/10/22 05:26:24;;;;;;;6.25;2.00;;;;;;;;;;5074424;28;20074;-66
2021/10/22 05:28:49;;;;;;;5.05;2.13;;;;;;;;;;5074551;28;20055;-66
2021/10/22 05:31:14;;;;;;;7.32;1.60;;;;;;;;;;5074742;28;20016;-66
2021/10/22 05:33:40;;;;;;;4.43;1.80;;;;;;;;;;5074430;28;20115;-66
2021/10/22 05:36:05;;;;;;;5.35;2.03;;;;;;;;;;5074324;28;20028;-67
2021/10/22 05:38:30;;;;;;;4.65;2.00;;;;;;;;;;5074459;28;20446;-66
2021/10/22 05:40:56;;;;;;;7.68;1.70;;;;;;;;;;5092411;28;20024;-65
2021/10/22 05:43:21;;;;;;;5.75;2.05;;;;;;;;;;5093221;28;20059;-66
2021/10/22 05:45:46;;;;;;;6.57;2.30;;;;;;;;;;5093617;28;20036;-66
2021/10/22 05:48:11;;;;;;;10.40;3.15;;;;;;;;;;5093966;28;20032;-69
2021/10/22 05:50:39;;;;;;;6.68;2.40;;;;;;;;;;5094415;28;20020;-70
2021/10/22 05:53:04;;;;;;;6.95;2.67;;;;;;;;;;5094267;28;20023;-68
2021/10/22 05:55:30;;;;;;;5.90;2.67;;;;;;;;;;5094005;28;20028;-67
2021/10/22 05:57:56;;;;;;;7.78;2.83;;;;;;;;;;5094133;28;20062;-68
2021/10/22 06:00:21;;;;;;;10.48;2.90;;;;;;;;;;5087791;28;20115;-69
2021/10/22 06:02:46;;;;;;;14.90;4.15;;;;;;;;;;5082531;28;20067;-68
2021/10/22 06:05:12;;;;;;;17.98;5.03;;;;;;;;;;5080141;28;20028;-66
2021/10/22 06:07:37;;;;;;;10.95;3.78;;;;;;;;;;5077856;28;20388;-69
2021/10/22 06:10:03;;;;;;;7.60;3.28;;;;;;;;;;5081141;28;20035;-73
2021/10/22 06:12:28;;;;;;;7.47;3.05;;;;;;;;;;5082483;28;20030;-72
2021/10/22 06:14:54;;;;;;;15.98;3.33;;;;;;;;;;5076572;28;20021;-77
2021/10/22 06:17:19;;;;;;;14.38;2.80;;;;;;;;;;5088630;28;20027;-75
2021/10/22 06:19:47;;;;;;;9.90;2.67;;;;;;;;;;5094763;28;20020;-74
2021/10/22 06:24:43;;;;;;;2.63;1.85;;;;;;;;;;5083026;28;20482;-75
2021/10/22 06:27:09;;;;;;;8.63;2.25;;;;;;;;;;5085442;28;20069;-74
2021/10/22 06:29:34;;;;;;;7.32;1.75;;;;;;;;;;5075498;28;20384;-77
2021/10/22 06:31:59;;;;;;;5.70;2.00;;;;;;;;;;5083001;28;20468;-73
2021/10/22 06:34:27;;;;;;;6.85;1.92;;;;;;;;;;5084356;28;20465;-73
2021/10/22 06:36:52;;;;;;;16.73;3.47;;;;;;;;;;5081198;28;20012;-72
2021/10/22 06:39:17;;;;;;;11.63;3.20;;;;;;;;;;5078689;28;20667;-69
2021/10/22 06:41:43;;;;;;;9.80;2.38;;;;;;;;;;5081783;28;20117;-70
2021/10/22 06:44:08;;;;;;;11.50;2.38;;;;;;;;;;5093524;28;20016;-71
2021/10/22 06:46:34;;;;;;;8.63;1.85;;;;;;;;;;5088922;28;20019;-71
2021/10/22 06:48:59;;;;;;;3.25;1.40;;;;;;;;;;5075830;28;20527;-71
2021/10/22 06:51:24;;;;;;;7.97;2.28;;;;;;;;;;5076316;28;20021;-71
2021/10/22 06:53:50;;;;;;;7.82;1.88;;;;;;;;;;5077370;28;20024;-72
2021/10/22 06:56:15;;;;;;;10.93;2.85;;;;;;;;;;5091733;28;20024;-73
2021/10/22 06:58:41;;;;;;;5.80;2.10;;;;;;;;;;5081547;28;20025;-65
2021/10/22 07:01:06;;;;;;;11.55;2.78;;;;;;;;;;5079116;28;20104;-68
2021/10/22 07:03:42;;;;;;;8.68;2.25;;;;;;;;;;5083201;28;20052;-69
2021/10/22 07:08:52;;;;;;;16.88;3.38;;;;;;;;;;5072686;28;20031;-65
2021/10/22 07:11:18;;;;;;;12.68;3.30;;;;;;;;;;5078349;28;20024;-67
2021/10/22 07:13:50;;;;;;;12.45;3.63;;;;;;;;;;5073651;28;20040;-67
2021/10/22 07:16:15;;;;;;;8.73;3.03;;;;;;;;;;5092040;28;20020;-71
2021/10/22 07:18:41;;;;;;;12.52;3.28;;;;;;;;;;5084113;28;20019;-73
2021/10/22 07:21:06;;;;;;;7.15;2.40;;;;;;;;;;5081042;28;20028;-72
2021/10/22 07:23:34;;;;;;;6.80;2.03;;;;;;;;;;5080555;28;20009;-74
2021/10/22 07:26:00;;;;;;;8.52;2.20;;;;;;;;;;5081922;28;20465;-73
2021/10/22 07:28:25;;;;;;;14.88;3.42;;;;;;;;;;5076451;28;20017;-75
2021/10/22 07:30:52;;;;;;;10.95;3.15;;;;;;;;;;5072288;28;20086;-75
2021/10/22 07:33:17;;;;;;;14.13;2.60;;;;;;;;;;5072144;28;20530;-72
2021/10/22 07:35:43;;;;;;;7.28;2.50;;;;;;;;;;5071272;28;20021;-74
2021/10/22 07:38:11;;;;;;;11.43;3.05;;;;;;;;;;5073252;28;20032;-79
2021/10/22 07:40:41;;;;;;;7.25;2.78;;;;;;;;;;5092506;28;20012;-76
2021/10/22 07:43:06;;;;;;;10.75;3.70;;;;;;;;;;5074025;28;20124;-75
2021/10/22 07:45:31;;;;;;;9.15;2.97;;;;;;;;;;5084879;28;20460;-76
2021/10/22 07:47:57;;;;;;;9.85;3.00;;;;;;;;;;5091233;28;20020;-77
2021/10/22 07:50:22;;;;;;;5.93;2.78;;;;;;;;;;5092952;28;20374;-74
2021/10/22 07:52:47;;;;;;;10.00;2.10;;;;;;;;;;5083444;28;20039;-77
2021/10/22 07:55:12;;;;;;;8.43;1.90;;;;;;;;;;5077010;28;20025;-73
2021/10/22 07:57:38;;;;;;;15.70;3.65;;;;;;;;;;5076889;28;20732;-74
2021/10/22 08:00:04;;;;;;;5.85;1.77;;;;;;;;;;5075790;28;20025;-75
2021/10/22 08:02:29;;;;;;;21.08;2.50;;;;;;;;;;5075534;28;20028;-74
2021/10/22 08:04:55;;;;;;;5.53;2.03;;;;;;;;;;5083646;28;20053;-74
2021/10/22 08:07:21;;;;;;;7.85;2.80;;;;;;;;;;5084977;28;20032;-73
2021/10/22 08:09:47;;;;;;;5.63;1.90;;;;;;;;;;5085321;28;20008;-74
2021/10/22 08:12:14;;;;;;;13.73;4.13;;;;;;;;;;5084965;28;20023;-70
2021/10/22 08:14:39;;;;;;;6.93;2.38;;;;;;;;;;5085719;28;20473;-74
2021/10/22 08:17:05;;;;;;;6.50;2.00;;;;;;;;;;5078389;28;20023;-74
2021/10/22 08:19:30;;;;;;;4.78;1.95;;;;;;;;;;5076888;28;20043;-75
2021/10/22 08:24:39;;;;;;;12.27;4.80;;;;;;;;;;5096183;28;20030;-78
2021/10/22 08:27:05;;;;;;;14.40;4.60;;;;;;;;;;5095807;28;20016;-79
2021/10/22 08:29:30;;;;;;;3.95;1.55;;;;;;;;;;5095780;28;20024;-77
2021/10/22 08:31:55;;;;;;;5.10;1.50;;;;;;;;;;5094630;28;20077;-76
2021/10/22 08:34:20;;;;;;;3.30;1.57;;;;;;;;;;5084622;28;20103;-77
2021/10/22 08:36:46;;;;;;;5.80;1.70;;;;;;;;;;5079342;28;20360;-77
2021/10/22 08:39:12;;;;;;;14.68;3.53;;;;;;;;;;5084530;28;20258;-78
2021/10/22 08:41:37;;;;;;;8.63;2.75;;;;;;;;;;5075670;28;20059;-74
2021/10/22 08:44:03;;;;;;;6.25;2.33;;;;;;;;;;5088448;28;20024;-67
2021/10/22 08:46:31;;;;;;;9.13;2.13;;;;;;;;;;5087058;28;20035;-68
2021/10/22 08:48:56;;;;;;;4.05;2.30;;;;;;;;;;5094540;28;20092;-68
2021/10/22 08:51:21;;;;;;;6.90;1.77;;;;;;;;;;5081239;28;20672;-67
2021/10/22 08:53:48;;;;;;;3.63;1.53;;;;;;;;;;5079044;28;20280;-67
2021/10/22 08:56:13;;;;;;;3.05;1.33;;;;;;;;;;5093898;28;20252;-67
2021/10/22 08:58:39;;;;;;;3.38;1.58;;;;;;;;;;5095154;28;20073;-68
2021/10/22 09:01:04;;;;;;;4.63;2.35;;;;;;;;;;5092659;28;20447;-67
2021/10/22 09:03:39;;;;;;;5.05;2.00;;;;;;;;;;5089388;28;20015;-68
2021/10/22 09:06:09;;;;;;;5.95;1.73;;;;;;;;;;5091618;28;20393;-65
2021/10/22 09:08:38;;;;;;;4.40;1.30;;;;;;;;;;5094315;28;20415;-65
2021/10/22 09:11:05;;;;;;;6.78;1.20;;;;;;;;;;5093961;28;20388;-68
2021/10/22 09:13:34;;;;;;;6.70;1.50;;;;;;;;;;5077876;28;20495;-68
2021/10/22 09:15:59;;;;;;;;;;;;;;;;;;5094914;28;20027;-69
2021/10/22 09:18:26;;;;;;;9.53;1.50;;;;;;;;;;5092865;28;19912;-69
2021/10/22 09:20:54;;;;;;;4.35;1.35;;;;;;;;;;5094612;28;20381;-68
2021/10/22 09:23:26;;;;;;;5.75;1.30;;;;;;;;;;5092670;28;20099;-69
2021/10/22 09:25:51;;;;;;;2.35;0.80;;;;;;;;;;5077683;28;20039;-67
2021/10/22 09:28:25;;;;;;;4.80;1.23;;;;;;;;;;5079953;28;20016;-69
2021/10/22 09:30:50;;;;;;;2.58;1.08;;;;;;;;;;5086351;28;20020;-70
2021/10/22 09:33:17;;;;;;;2.90;1.08;;;;;;;;;;5081380;28;20052;-68
2021/10/22 09:35:46;;;;;;;6.65;1.23;;;;;;;;;;5082049;28;20012;-68
2021/10/22 09:38:13;;;;;;;8.65;0.88;;;;;;;;;;5095284;28;20022;-68
2021/10/22 09:40:44;;;;;;;4.47;0.95;;;;;;;;;;5083386;28;20020;-68
2021/10/22 09:43:11;;;;;;;4.35;1.27;;;;;;;;;;5088644;28;20072;-69
2021/10/22 09:45:36;;;;;;;1.55;1.15;;;;;;;;;;5089614;28;20488;-69
2021/10/22 09:48:20;;;;;;;4.43;1.00;;;;;;;;;;5093915;28;20103;-69
2021/10/22 09:50:45;;;;;;;2.80;1.25;;;;;;;;;;5093793;28;20660;-68
2021/10/22 09:53:21;;;;;;;3.65;1.20;;;;;;;;;;5093475;28;20081;-68
2021/10/22 09:55:59;;;;;;;3.50;0.80;;;;;;;;;;5090929;28;20013;-68
2021/10/22 09:58:24;;;;;;;2.75;0.80;;;;;;;;;;5093674;28;20069;-70
2021/10/22 10:01:04;;;;;;;4.10;0.83;;;;;;;;;;5093467;28;20004;-67
2021/10/22 10:03:29;;;;;;;3.53;0.90;;;;;;;;;;5089344;28;20674;-66
2021/10/22 10:05:55;;;;;;;3.42;0.63;;;;;;;;;;5085599;28;20119;-67
2021/10/22 10:08:20;;;;;;;2.25;0.63;;;;;;;;;;5081557;28;20476;-67
2021/10/22 10:10:46;;;;;;;7.65;1.13;;;;;;;;;;5072443;28;20024;-67
2021/10/22 10:13:11;;;;;;;3.92;0.98;;;;;;;;;;5080157;28;20012;-68
2021/10/22 10:15:38;;;;;;;1.97;0.90;;;;;;;;;;5081135;28;20213;-67
2021/10/22 10:18:07;;;;;;;2.00;0.70;;;;;;;;;;5080964;28;20253;-67
2021/10/22 10:20:33;;;;;;;2.80;0.73;;;;;;;;;;5082091;28;20520;-68
2021/10/22 10:23:01;;;;;;;1.65;0.60;;;;;;;;;;5082331;28;20115;-67
2021/10/22 10:25:27;;;;;;;1.58;0.88;;;;;;;;;;5083514;28;20425;-67
2021/10/22 10:27:53;;;;;;;4.50;1.00;;;;;;;;;;5082235;28;20059;-67
2021/10/22 10:30:27;;;;;;;2.10;0.85;;;;;;;;;;5081656;28;20021;-67
2021/10/22 10:32:52;;;;;;;3.67;0.90;;;;;;;;;;5081768;28;20024;-66
2021/10/22 10:35:17;;;;;;;4.85;1.00;;;;;;;;;;5082037;28;20023;-67
2021/10/22 10:37:47;;;;;;;2.28;0.90;;;;;;;;;;5087124;28;20093;-67
2021/10/22 10:40:22;;;;;;;4.28;0.88;;;;;;;;;;5072884;28;20350;-67
2021/10/22 10:42:47;;;;;;;2.83;1.10;;;;;;;;;;5070712;28;20076;-67
2021/10/22 10:45:42;;;;;;;3.05;1.42;;;;;;;;;;5072551;28;20105;-67
2021/10/22 10:48:09;;;;;;;3.10;0.60;;;;;;;;;;5062569;28;20039;-67
2021/10/22 10:50:38;;;;;;;20.23;1.40;;;;;;;;;;5072455;28;20376;-67
2021/10/22 10:53:03;;;;;;;2.97;0.80;;;;;;;;;;5088991;28;20016;-69
2021/10/22 10:55:42;;;;;;;3.60;1.08;;;;;;;;;;5078677;28;20028;-68
2021/10/22 10:58:07;;;;;;;1.83;0.70;;;;;;;;;;5072300;28;20031;-68
2021/10/22 11:00:33;;;;;;;3.15;0.77;;;;;;;;;;5073756;28;20393;-69
2021/10/22 11:03:02;;;;;;;3.63;0.90;;;;;;;;;;5078723;28;20085;-68
2021/10/22 11:05:43;;;;;;;4.72;1.27;;;;;;;;;;5078595;28;20008;-68
2021/10/22 11:08:14;;;;;;;5.60;1.25;;;;;;;;;;5080374;28;20024;-68
2021/10/22 11:11:16;;;;;;;6.60;1.10;;;;;;;;;;5084750;28;20082;-69
2021/10/22 11:13:41;;;;;;;6.10;1.75;;;;;;;;;;5072717;28;20044;-70
2021/10/22 11:16:07;;;;;;;4.87;1.93;;;;;;;;;;5084906;28;20369;-71
2021/10/22 11:18:35;;;;;;;5.20;1.10;;;;;;;;;;5091701;28;20380;-72
2021/10/22 11:21:00;;;;;;;8.32;1.20;;;;;;;;;;5071542;28;20579;-70
2021/10/22 11:23:26;;;;;;;2.85;0.98;;;;;;;;;;5070115;28;20016;-70
2021/10/22 11:25:55;;;;;;;4.87;1.10;;;;;;;;;;5071127;28;20028;-70
2021/10/22 11:28:28;;;;;;;4.40;1.20;;;;;;;;;;5071279;28;20265;-71
2021/10/22 11:30:55;;;;;;;3.17;1.20;;;;;;;;;;5071473;28;20016;-69
2021/10/22 11:33:20;;;;;;;4.88;2.17;;;;;;;;;;5075101;28;21076;-71
2021/10/22 11:35:46;;;;;;;3.80;0.80;;;;;;;;;;5079843;28;20106;-71
2021/10/22 11:38:12;;;;;;;4.55;1.30;;;;;;;;;;5096590;28;20268;-69
2021/10/22 11:40:38;;;;;;;4.97;1.00;;;;;;;;;;5087130;28;20431;-69
2021/10/22 11:43:07;;;;;;;6.25;1.00;;;;;;;;;;5074485;28;20289;-70
2021/10/22 11:45:33;;;;;;;2.03;0.90;;;;;;;;;;5076508;28;20044;-70
2021/10/22 11:47:59;;;;;;;2.55;0.82;;;;;;;;;;5092666;28;20020;-70
2021/10/22 11:50:32;;;;;;;3.45;0.98;;;;;;;;;;5092099;28;20048;-68
2021/10/22 11:53:11;;;;;;;3.85;1.20;;;;;;;;;;5083470;28;20468;-69
2021/10/22 11:55:38;;;;;;;2.58;0.70;;;;;;;;;;5080307;28;20096;-70
2021/10/22 11:58:08;;;;;;;2.95;0.52;;;;;;;;;;5075960;28;20381;-70
2021/10/22 12:00:33;;;;;;;3.33;0.80;;;;;;;;;;5072742;28;20044;-69
2021/10/22 12:02:58;;;;;;;5.32;0.80;;;;;;;;;;5074376;28;20079;-69
2021/10/22 12:05:26;;;;;;;2.90;1.10;;;;;;;;;;5073213;28;20028;-70
2021/10/22 12:07:54;;;;;;;3.92;1.13;;;;;;;;;;5076578;28;20111;-70
2021/10/22 12:10:20;;;;;;;2.05;1.00;;;;;;;;;;5090281;28;20103;-71
2021/10/22 12:12:47;;;;;;;2.72;0.85;;;;;;;;;;5080805;28;20100;-71
2021/10/22 12:15:16;;;;;;;4.72;1.50;;;;;;;;;;5083203;28;20051;-73
2021/10/22 12:17:42;;;;;;;3.78;1.25;;;;;;;;;;5083625;28;20039;-71
2021/10/22 12:20:08;;;;;;;3.15;1.05;;;;;;;;;;5083456;28;20125;-71
2021/10/22 12:22:35;;;;;;;6.85;1.33;;;;;;;;;;5072238;28;20415;-70
2021/10/22 12:25:03;;;;;;;2.47;0.70;;;;;;;;;;5085310;28;20051;-71
2021/10/22 12:27:29;;;;;;;6.73;1.30;;;;;;;;;;5078741;28;20486;-69
2021/10/22 12:29:55;;;;;;;2.45;0.80;;;;;;;;;;5091437;28;20112;-73
2021/10/22 12:32:31;;;;;;;4.63;1.02;;;;;;;;;;5079849;28;20035;-73
2021/10/22 12:34:56;;;;;;;3.45;1.00;;;;;;;;;;5073151;28;20017;-71
2021/10/22 12:37:35;;;;;;;3.80;0.90;;;;;;;;;;5077495;28;20078;-71
2021/10/22 12:40:11;;;;;;;4.07;1.10;;;;;;;;;;5084607;28;20031;-70
2021/10/22 12:42:36;;;;;;;1.10;0.82;;;;;;;;;;5089214;28;20040;-70
2021/10/22 12:45:18;;;;;;;3.67;1.17;;;;;;;;;;5078400;28;20401;-70
2021/10/22 12:47:44;;;;;;;2.47;1.05;;;;;;;;;;5080435;28;20013;-71
2021/10/22 12:50:10;;;;;;;4.35;1.40;;;;;;;;;;5077043;28;20043;-71
2021/10/22 12:52:37;;;;;;;4.45;1.65;;;;;;;;;;5075255;28;20021;-70
2021/10/22 12:55:02;;;;;;;3.75;1.40;;;;;;;;;;5074303;28;20028;-73
2021/10/22 12:57:28;;;;;;;8.95;1.25;;;;;;;;;;5088091;28;20024;-72
2021/10/22 12:59:55;;;;;;;12.67;1.50;;;;;;;;;;5077054;28;20016;-72
2021/10/22 13:02:28;;;;;;;5.65;1.00;;;;;;;;;;5080008;28;20257;-73
2021/10/22 13:05:13;;;;;;;2.47;0.88;;;;;;;;;;5093480;28;20031;-71
2021/10/22 13:07:56;;;;;;;10.63;1.27;;;;;;;;;;5091261;28;20081;-70
2021/10/22 13:10:28;;;;;;;6.22;1.00;;;;;;;;;;5087971;28;20439;-69
2021/10/22 13:13:04;;;;;;;7.88;1.30;;;;;;;;;;5075588;28;20103;-67
2021/10/22 13:20:57;;;;;;;6.35;1.17;;;;;;;;;;5082203;28;20023;-69
2021/10/22 13:23:23;;;;;;;8.05;1.70;;;;;;;;;;5089289;28;20770;-69
2021/10/22 13:25:49;;;;;;;6.07;1.20;;;;;;;;;;5088013;28;20077;-71
2021/10/22 13:28:18;;;;;;;7.90;1.50;;;;;;;;;;5079108;28;20056;-71
2021/10/22 13:30:45;;;;;;;11.18;1.92;;;;;;;;;;5087608;28;20028;-71
2021/10/22 13:33:14;;;;;;;4.60;1.30;;;;;;;;;;5077948;28;20477;-71
2021/10/22 13:35:39;;;;;;;;;;;;;;;;;;5079614;28;20028;-71
2021/10/22 13:38:06;;;;;;;6.13;1.20;;;;;;;;;;5087492;28;19905;-69
2021/10/22 13:40:32;;;;;;;5.75;1.00;;;;;;;;;;5083976;28;20137;-68
2021/10/22 13:42:57;;;;;;;16.73;2.03;;;;;;;;;;5088284;28;20123;-72
2021/10/22 13:45:23;;;;;;;7.80;1.73;;;;;;;;;;5088617;28;20031;-71
2021/10/22 13:47:48;;;;;;;8.73;1.77;;;;;;;;;;5080561;28;20028;-72
2021/10/22 13:50:13;;;;;;;8.07;1.52;;;;;;;;;;5087192;28;20519;-71
2021/10/22 13:52:38;;;;;;;6.47;1.73;;;;;;;;;;5077113;28;20032;-72
2021/10/22 13:55:04;;;;;;;3.90;1.48;;;;;;;;;;5089157;28;20027;-73
2021/10/22 13:57:29;;;;;;;2.50;1.20;;;;;;;;;;5092787;28;20077;-71
2021/10/22 13:59:55;;;;;;;3.80;1.30;;;;;;;;;;5081142;28;20020;-71
2021/10/22 14:02:20;;;;;;;2.40;1.40;;;;;;;;;;5092819;28;20395;-71
2021/10/22 14:04:45;;;;;;;10.00;1.40;;;;;;;;;;5081344;28;20257;-71
2021/10/22 14:07:11;;;;;;;6.75;1.35;;;;;;;;;;5092097;28;20267;-73
2021/10/22 14:09:37;;;;;;;3.78;1.65;;;;;;;;;;5094234;28;20016;-71
2021/10/22 14:12:22;;;;;;;4.70;1.88;;;;;;;;;;5094207;28;20027;-72
2021/10/22 14:30:52;;;;;;;4.43;0.88;;;;;;;;;;5094141;28;20031;-71
2021/10/22 14:33:18;;;;;;;2.22;1.13;;;;;;;;;;5093726;28;20028;-71
2021/10/22 14:35:43;;;;;;;4.43;1.52;;;;;;;;;;5092503;28;20031;-72
2021/10/22 14:38:08;;;;;;;5.82;1.75;;;;;;;;;;5093483;28;20020;-72
2021/10/22 14:40:35;;;;;;;7.32;2.20;;;;;;;;;;5093606;28;20012;-71
2021/10/22 14:43:03;;;;;;;25.88;10.68;;;;;;;;;;5093386;28;20039;-72
2021/10/22 14:48:09;;;;;;;16.50;6.65;;;;;;;;;;5093318;28;20012;-72
2021/10/22 14:50:39;;;;;;;23.27;5.05;;;;;;;;;;5093294;28;20039;-72
2021/10/22 14:53:35;;;;;;;11.52;4.70;;;;;;;;;;5093088;28;20099;-72
2021/10/22 14:56:00;;;;;;;4.82;2.13;;;;;;;;;;5093154;28;20020;-72
2021/10/22 14:58:26;;;;;;;7.03;2.40;;;;;;;;;;5092506;28;20027;-72
2021/10/22 15:00:52;;;;;;;4.93;2.10;;;;;;;;;;5091956;28;20253;-72
2021/10/22 15:03:17;;;;;;;15.15;6.53;;;;;;;;;;5092674;28;20397;-71
2021/10/22 15:05:43;;;;;;;20.77;10.25;;;;;;;;;;5091581;28;20115;-72
2021/10/22 15:08:15;;;;;;;38.90;18.38;;;;;;;;;;5092757;28;20024;-72
2021/10/22 15:10:40;;;;;;;57.85;31.23;;;;;;;;;;5092917;28;20059;-72
2021/10/22 15:13:06;;;;;;;76.10;43.42;;;;;;;;;;5092781;28;20056;-73
2021/10/22 15:15:31;;;;;;;93.35;47.08;;;;;;;;;;5091323;28;20054;-73